sensor_id;sensor_type;location;lat;lon;timestamp;pressure;altitude;pressure_sealevel;temperature;humidity
20368;BME280;10343;52.402;9.796;2022-07-17T00:02:24;102153.97;;;14.10;64.33
20368;BME280;10343;52.402;9.796;2022-07-17T00:04:52;102154.00;;;14.07;64.61
20368;BME280;10343;52.402;9.796;2022-07-17T00:07:22;102155.81;;;14.07;64.77
20368;BME280;10343;52.402;9.796;2022-07-17T00:09:50;102151.38;;;14.04;65.05
20368;BME280;10343;52.402;9.796;2022-07-17T00:12:17;102148.81;;;14.00;64.90
20368;BME280;10343;52.402;9.796;2022-07-17T00:14:45;102146.22;;;13.92;64.83
20368;BME280;10343;52.402;9.796;2022-07-17T00:17:14;102147.16;;;13.88;65.50
20368;BME280;10343;52.402;9.796;2022-07-17T00:19:42;102146.34;;;13.83;65.32
20368;BME280;10343;52.402;9.796;2022-07-17T00:22:10;102144.63;;;13.79;65.75
20368;BME280;10343;52.402;9.796;2022-07-17T00:24:39;102148.22;;;13.78;65.80
20368;BME280;10343;52.402;9.796;2022-07-17T00:27:07;102153.59;;;13.71;65.38
20368;BME280;10343;52.402;9.796;2022-07-17T00:29:35;102139.38;;;13.72;66.42
20368;BME280;10343;52.402;9.796;2022-07-17T00:32:03;102139.47;;;13.65;66.12
20368;BME280;10343;52.402;9.796;2022-07-17T00:34:31;102139.53;;;13.60;66.08
20368;BME280;10343;52.402;9.796;2022-07-17T00:36:59;102146.66;;;13.61;66.24
20368;BME280;10343;52.402;9.796;2022-07-17T00:39:27;102144.00;;;13.59;66.45
20368;BME280;10343;52.402;9.796;2022-07-17T00:41:56;102139.59;;;13.57;66.21
20368;BME280;10343;52.402;9.796;2022-07-17T00:44:26;102134.28;;;13.54;66.50
20368;BME280;10343;52.402;9.796;2022-07-17T00:46:54;102148.53;;;13.53;66.51
20368;BME280;10343;52.402;9.796;2022-07-17T00:49:22;102145.00;;;13.49;66.74
20368;BME280;10343;52.402;9.796;2022-07-17T00:51:50;102153.94;;;13.45;67.07
20368;BME280;10343;52.402;9.796;2022-07-17T00:54:19;102147.75;;;13.41;67.16
20368;BME280;10343;52.402;9.796;2022-07-17T00:56:48;102145.13;;;13.38;67.49
20368;BME280;10343;52.402;9.796;2022-07-17T00:59:18;102146.94;;;13.36;67.29
20368;BME280;10343;52.402;9.796;2022-07-17T01:01:48;102149.56;;;13.33;67.56
20368;BME280;10343;52.402;9.796;2022-07-17T01:04:16;102135.44;;;13.30;67.65
20368;BME280;10343;52.402;9.796;2022-07-17T01:06:45;102139.91;;;13.26;68.04
20368;BME280;10343;52.402;9.796;2022-07-17T01:09:13;102142.63;;;13.21;67.81
20368;BME280;10343;52.402;9.796;2022-07-17T01:11:41;102140.00;;;13.20;67.77
20368;BME280;10343;52.402;9.796;2022-07-17T01:14:10;102148.91;;;13.16;68.13
20368;BME280;10343;52.402;9.796;2022-07-17T01:16:40;102150.69;;;13.14;68.16
20368;BME280;10343;52.402;9.796;2022-07-17T01:19:10;102154.28;;;13.13;68.60
20368;BME280;10343;52.402;9.796;2022-07-17T01:21:40;102146.31;;;13.08;69.17
20368;BME280;10343;52.402;9.796;2022-07-17T01:24:09;102145.47;;;13.04;69.10
20368;BME280;10343;52.402;9.796;2022-07-17T01:26:40;102139.28;;;13.01;69.23
20368;BME280;10343;52.402;9.796;2022-07-17T01:29:09;102143.75;;;12.97;69.24
20368;BME280;10343;52.402;9.796;2022-07-17T01:31:39;102154.41;;;12.97;69.52
20368;BME280;10343;52.402;9.796;2022-07-17T01:34:08;102142.00;;;12.93;69.63
20368;BME280;10343;52.402;9.796;2022-07-17T01:36:36;102156.25;;;12.92;69.61
20368;BME280;10343;52.402;9.796;2022-07-17T01:39:05;102158.03;;;12.90;69.48
20368;BME280;10343;52.402;9.796;2022-07-17T01:41:33;102151.06;;;12.73;70.42
20368;BME280;10343;52.402;9.796;2022-07-17T01:44:02;102149.38;;;12.62;71.73
20368;BME280;10343;52.402;9.796;2022-07-17T01:46:31;102151.16;;;12.67;72.34
20368;BME280;10343;52.402;9.796;2022-07-17T01:48:59;102158.22;;;12.71;71.81
20368;BME280;10343;52.402;9.796;2022-07-17T01:51:29;102155.53;;;12.71;71.30
20368;BME280;10343;52.402;9.796;2022-07-17T01:53:58;102147.53;;;12.70;71.22
20368;BME280;10343;52.402;9.796;2022-07-17T01:56:27;102146.69;;;12.69;71.06
20368;BME280;10343;52.402;9.796;2022-07-17T01:58:55;102158.25;;;12.65;71.33
20368;BME280;10343;52.402;9.796;2022-07-17T02:01:23;102153.81;;;12.64;71.70
20368;BME280;10343;52.402;9.796;2022-07-17T02:03:51;102154.72;;;12.60;71.48
20368;BME280;10343;52.402;9.796;2022-07-17T02:06:19;102152.09;;;12.58;71.40
20368;BME280;10343;52.402;9.796;2022-07-17T02:08:47;102159.22;;;12.53;72.17
20368;BME280;10343;52.402;9.796;2022-07-17T02:11:17;102156.59;;;12.49;72.05
20368;BME280;10343;52.402;9.796;2022-07-17T02:13:47;102166.38;;;12.47;71.57
20368;BME280;10343;52.402;9.796;2022-07-17T02:16:15;102164.63;;;12.44;72.26
20368;BME280;10343;52.402;9.796;2022-07-17T02:18:43;102159.34;;;12.41;72.82
20368;BME280;10343;52.402;9.796;2022-07-17T02:21:11;102156.66;;;12.43;72.67
20368;BME280;10343;52.402;9.796;2022-07-17T02:23:39;102151.34;;;12.43;72.59
20368;BME280;10343;52.402;9.796;2022-07-17T02:26:07;102150.47;;;12.39;72.73
20368;BME280;10343;52.402;9.796;2022-07-17T02:28:36;102154.94;;;12.32;72.10
20368;BME280;10343;52.402;9.796;2022-07-17T02:31:06;102150.50;;;12.31;73.15
20368;BME280;10343;52.402;9.796;2022-07-17T02:33:33;102152.28;;;12.32;73.41
20368;BME280;10343;52.402;9.796;2022-07-17T02:36:01;102160.25;;;12.32;73.24
20368;BME280;10343;52.402;9.796;2022-07-17T02:38:29;102154.97;;;12.29;72.81
20368;BME280;10343;52.402;9.796;2022-07-17T02:40:57;102153.19;;;12.30;73.13
20368;BME280;10343;52.402;9.796;2022-07-17T02:43:25;102154.09;;;12.26;73.16
20368;BME280;10343;52.402;9.796;2022-07-17T02:45:53;102155.00;;;12.23;73.04
20368;BME280;10343;52.402;9.796;2022-07-17T02:48:23;102157.69;;;12.20;73.13
20368;BME280;10343;52.402;9.796;2022-07-17T02:50:50;102163.88;;;12.19;73.71
20368;BME280;10343;52.402;9.796;2022-07-17T02:53:18;102165.69;;;12.17;73.69
20368;BME280;10343;52.402;9.796;2022-07-17T02:55:46;102167.44;;;12.15;73.79
20368;BME280;10343;52.402;9.796;2022-07-17T02:58:14;102173.69;;;12.14;73.71
20368;BME280;10343;52.402;9.796;2022-07-17T03:00:42;102179.88;;;12.13;73.72
20368;BME280;10343;52.402;9.796;2022-07-17T03:03:10;102180.78;;;12.10;73.76
20368;BME280;10343;52.402;9.796;2022-07-17T03:05:39;102171.94;;;12.08;74.03
20368;BME280;10343;52.402;9.796;2022-07-17T03:08:07;102178.16;;;12.02;74.46
20368;BME280;10343;52.402;9.796;2022-07-17T03:10:35;102179.94;;;12.03;74.60
20368;BME280;10343;52.402;9.796;2022-07-17T03:13:03;102185.25;;;12.03;74.54
20368;BME280;10343;52.402;9.796;2022-07-17T03:15:31;102181.72;;;12.01;74.50
20368;BME280;10343;52.402;9.796;2022-07-17T03:17:59;102188.81;;;11.99;74.27
20368;BME280;10343;52.402;9.796;2022-07-17T03:20:27;102185.28;;;12.00;74.73
20368;BME280;10343;52.402;9.796;2022-07-17T03:22:56;102184.41;;;12.00;74.82
20368;BME280;10343;52.402;9.796;2022-07-17T03:25:24;102188.84;;;11.96;74.43
20368;BME280;10343;52.402;9.796;2022-07-17T03:27:52;102188.84;;;11.96;74.61
20368;BME280;10343;52.402;9.796;2022-07-17T03:30:20;102199.47;;;11.96;74.96
20368;BME280;10343;52.402;9.796;2022-07-17T03:32:48;102196.81;;;11.98;74.95
20368;BME280;10343;52.402;9.796;2022-07-17T03:35:16;102197.69;;;11.95;74.84
20368;BME280;10343;52.402;9.796;2022-07-17T03:37:43;102196.81;;;11.96;75.06
20368;BME280;10343;52.402;9.796;2022-07-17T03:40:13;102197.69;;;11.95;75.10
20368;BME280;10343;52.402;9.796;2022-07-17T03:42:42;102197.66;;;11.98;74.89
20368;BME280;10343;52.402;9.796;2022-07-17T03:45:10;102201.22;;;12.00;74.59
20368;BME280;10343;52.402;9.796;2022-07-17T03:47:38;102204.75;;;12.02;74.73
20368;BME280;10343;52.402;9.796;2022-07-17T03:50:06;102208.28;;;12.04;74.71
20368;BME280;10343;52.402;9.796;2022-07-17T03:52:34;102212.69;;;12.09;74.75
20368;BME280;10343;52.402;9.796;2022-07-17T03:55:02;102218.00;;;12.12;74.71
20368;BME280;10343;52.402;9.796;2022-07-17T03:57:31;102218.88;;;12.17;74.88
20368;BME280;10343;52.402;9.796;2022-07-17T04:00:00;102213.53;;;12.20;74.56
20368;BME280;10343;52.402;9.796;2022-07-17T04:02:37;102215.25;;;12.27;74.53
20368;BME280;10343;52.402;9.796;2022-07-17T04:05:05;102217.00;;;12.34;74.52
20368;BME280;10343;52.402;9.796;2022-07-17T04:07:36;102212.53;;;12.41;74.65
20368;BME280;10343;52.402;9.796;2022-07-17T04:10:06;102208.94;;;12.48;74.86
20368;BME280;10343;52.402;9.796;2022-07-17T04:12:36;102212.44;;;12.55;73.87
20368;BME280;10343;52.402;9.796;2022-07-17T04:15:05;102215.00;;;12.64;73.65
20368;BME280;10343;52.402;9.796;2022-07-17T04:17:33;102211.44;;;12.71;73.82
20368;BME280;10343;52.402;9.796;2022-07-17T04:20:01;102206.00;;;12.84;73.57
20368;BME280;10343;52.402;9.796;2022-07-17T04:22:29;102200.56;;;12.96;73.58
20368;BME280;10343;52.402;9.796;2022-07-17T04:24:57;102190.72;;;13.07;73.35
20368;BME280;10343;52.402;9.796;2022-07-17T04:27:25;102187.94;;;13.20;72.87
20368;BME280;10343;52.402;9.796;2022-07-17T04:29:54;102178.06;;;13.28;73.07
20368;BME280;10343;52.402;9.796;2022-07-17T04:32:22;102182.38;;;13.41;73.05
20368;BME280;10343;52.402;9.796;2022-07-17T04:34:50;102178.69;;;13.55;72.62
20368;BME280;10343;52.402;9.796;2022-07-17T04:37:18;102179.44;;;13.66;71.92
20368;BME280;10343;52.402;9.796;2022-07-17T04:39:46;102174.88;;;13.74;71.82
20368;BME280;10343;52.402;9.796;2022-07-17T04:42:13;102196.09;;;13.85;71.74
20368;BME280;10343;52.402;9.796;2022-07-17T04:44:41;102193.22;;;13.99;70.77
20368;BME280;10343;52.402;9.796;2022-07-17T04:47:10;102204.69;;;14.07;69.33
20368;BME280;10343;52.402;9.796;2022-07-17T04:49:38;102215.28;;;14.14;69.23
20368;BME280;10343;52.402;9.796;2022-07-17T04:52:06;102228.50;;;14.23;69.21
20368;BME280;10343;52.402;9.796;2022-07-17T04:54:34;102237.66;;;14.02;70.10
20368;BME280;10343;52.402;9.796;2022-07-17T04:57:02;102245.72;;;13.97;69.84
20368;BME280;10343;52.402;9.796;2022-07-17T04:59:30;102234.19;;;13.93;70.19
20368;BME280;10343;52.402;9.796;2022-07-17T05:01:58;102238.75;;;13.84;70.02
20368;BME280;10343;52.402;9.796;2022-07-17T05:04:27;102237.00;;;13.84;69.65
20368;BME280;10343;52.402;9.796;2022-07-17T05:06:55;102237.88;;;13.83;69.81
20368;BME280;10343;52.402;9.796;2022-07-17T05:09:23;102237.91;;;13.79;70.38
20368;BME280;10343;52.402;9.796;2022-07-17T05:11:51;102224.44;;;13.94;69.55
20368;BME280;10343;52.402;9.796;2022-07-17T05:14:19;102226.81;;;14.14;69.34
20368;BME280;10343;52.402;9.796;2022-07-17T05:16:47;102232.88;;;14.27;68.98
20368;BME280;10343;52.402;9.796;2022-07-17T05:19:15;102218.50;;;14.37;68.06
20368;BME280;10343;52.402;9.796;2022-07-17T05:21:44;102217.53;;;14.43;67.64
20368;BME280;10343;52.402;9.796;2022-07-17T05:24:12;102214.88;;;14.41;67.22
20368;BME280;10343;52.402;9.796;2022-07-17T05:26:40;102230.75;;;14.51;67.50
20368;BME280;10343;52.402;9.796;2022-07-17T05:29:08;102208.34;;;14.63;67.34
20368;BME280;10343;52.402;9.796;2022-07-17T05:31:35;102205.50;;;14.73;66.41
20368;BME280;10343;52.402;9.796;2022-07-17T05:34:03;102206.22;;;14.85;66.34
20368;BME280;10343;52.402;9.796;2022-07-17T05:36:31;102218.63;;;14.87;65.69
20368;BME280;10343;52.402;9.796;2022-07-17T05:39:01;102224.81;;;14.91;65.25
20368;BME280;10343;52.402;9.796;2022-07-17T05:41:29;102224.69;;;14.97;65.66
20368;BME280;10343;52.402;9.796;2022-07-17T05:43:57;102224.47;;;15.13;65.37
20368;BME280;10343;52.402;9.796;2022-07-17T05:46:24;102232.09;;;15.33;65.21
20368;BME280;10343;52.402;9.796;2022-07-17T05:48:52;102215.13;;;15.35;64.41
20368;BME280;10343;52.402;9.796;2022-07-17T05:51:20;102221.25;;;15.42;64.55
20368;BME280;10343;52.402;9.796;2022-07-17T05:53:50;102223.88;;;15.43;63.71
20368;BME280;10343;52.402;9.796;2022-07-17T05:56:20;102224.75;;;15.45;63.41
20368;BME280;10343;52.402;9.796;2022-07-17T05:58:48;102213.09;;;15.50;63.93
20368;BME280;10343;52.402;9.796;2022-07-17T06:01:16;102218.13;;;15.65;63.90
20368;BME280;10343;52.402;9.796;2022-07-17T06:03:44;102226.84;;;15.75;63.41
20368;BME280;10343;52.402;9.796;2022-07-17T06:06:11;102226.88;;;15.73;62.70
20368;BME280;10343;52.402;9.796;2022-07-17T06:08:39;102238.78;;;15.57;62.28
20368;BME280;10343;52.402;9.796;2022-07-17T06:11:07;102234.47;;;15.50;62.40
20368;BME280;10343;52.402;9.796;2022-07-17T06:13:36;102232.63;;;15.52;62.78
20368;BME280;10343;52.402;9.796;2022-07-17T06:16:05;102243.09;;;15.64;62.43
20368;BME280;10343;52.402;9.796;2022-07-17T06:18:33;102241.16;;;15.72;61.77
20368;BME280;10343;52.402;9.796;2022-07-17T06:21:01;102244.47;;;15.85;60.89
20368;BME280;10343;52.402;9.796;2022-07-17T06:23:29;102232.50;;;16.05;60.53
20368;BME280;10343;52.402;9.796;2022-07-17T06:25:57;102231.53;;;16.09;60.43
20368;BME280;10343;52.402;9.796;2022-07-17T06:28:25;102231.53;;;16.07;60.83
20368;BME280;10343;52.402;9.796;2022-07-17T06:30:54;102235.97;;;16.08;60.68
20368;BME280;10343;52.402;9.796;2022-07-17T06:33:22;102238.41;;;16.19;60.58
20368;BME280;10343;52.402;9.796;2022-07-17T06:35:50;102229.00;;;16.40;59.38
20368;BME280;10343;52.402;9.796;2022-07-17T06:38:17;102231.31;;;16.57;58.65
20368;BME280;10343;52.402;9.796;2022-07-17T06:40:45;102227.28;;;16.77;58.07
20368;BME280;10343;52.402;9.796;2022-07-17T06:43:13;102233.28;;;16.87;57.26
20368;BME280;10343;52.402;9.796;2022-07-17T06:45:41;102234.16;;;16.89;56.86
20368;BME280;10343;52.402;9.796;2022-07-17T06:48:10;102235.31;;;17.13;56.26
20368;BME280;10343;52.402;9.796;2022-07-17T06:50:38;102242.19;;;17.25;55.85
20368;BME280;10343;52.402;9.796;2022-07-17T06:53:06;102232.69;;;17.11;55.91
20368;BME280;10343;52.402;9.796;2022-07-17T06:55:34;102239.63;;;17.19;55.93
20368;BME280;10343;52.402;9.796;2022-07-17T06:58:02;102233.72;;;17.40;55.48
20368;BME280;10343;52.402;9.796;2022-07-17T07:00:31;102232.13;;;17.33;56.42
20368;BME280;10343;52.402;9.796;2022-07-17T07:02:59;102221.47;;;17.30;56.07
20368;BME280;10343;52.402;9.796;2022-07-17T07:05:28;102232.50;;;17.18;55.88
20368;BME280;10343;52.402;9.796;2022-07-17T07:07:56;102241.16;;;16.94;56.85
20368;BME280;10343;52.402;9.796;2022-07-17T07:10:24;102240.91;;;17.04;56.63
20368;BME280;10343;52.402;9.796;2022-07-17T07:12:52;102244.41;;;17.07;56.22
20368;BME280;10343;52.402;9.796;2022-07-17T07:15:20;102241.63;;;17.10;56.78
20368;BME280;10343;52.402;9.796;2022-07-17T07:17:48;102239.81;;;17.12;56.42
20368;BME280;10343;52.402;9.796;2022-07-17T07:20:16;102243.75;;;17.32;55.93
20368;BME280;10343;52.402;9.796;2022-07-17T07:22:45;102245.59;;;17.30;56.15
20368;BME280;10343;52.402;9.796;2022-07-17T07:25:13;102237.41;;;17.36;55.04
20368;BME280;10343;52.402;9.796;2022-07-17T07:27:41;102237.63;;;17.27;55.52
20368;BME280;10343;52.402;9.796;2022-07-17T07:30:09;102239.56;;;17.22;55.38
20368;BME280;10343;52.402;9.796;2022-07-17T07:32:38;102238.28;;;17.02;55.86
20368;BME280;10343;52.402;9.796;2022-07-17T07:35:07;102240.63;;;17.14;56.21
20368;BME280;10343;52.402;9.796;2022-07-17T07:37:36;102237.81;;;17.21;55.40
20368;BME280;10343;52.402;9.796;2022-07-17T07:40:07;102241.94;;;16.98;54.85
20368;BME280;10343;52.402;9.796;2022-07-17T07:42:35;102241.59;;;17.12;55.22
20368;BME280;10343;52.402;9.796;2022-07-17T07:45:04;102240.56;;;17.18;55.98
20368;BME280;10343;52.402;9.796;2022-07-17T07:47:32;102240.66;;;17.47;54.20
20368;BME280;10343;52.402;9.796;2022-07-17T07:50:00;102241.66;;;17.76;53.93
20368;BME280;10343;52.402;9.796;2022-07-17T07:52:28;102233.78;;;18.03;52.13
20368;BME280;10343;52.402;9.796;2022-07-17T07:54:56;102242.84;;;18.27;52.36
20368;BME280;10343;52.402;9.796;2022-07-17T07:57:25;102236.91;;;18.74;52.12
20368;BME280;10343;52.402;9.796;2022-07-17T07:59:53;102236.22;;;18.96;50.88
20368;BME280;10343;52.402;9.796;2022-07-17T08:02:21;102241.97;;;19.12;50.26
20368;BME280;10343;52.402;9.796;2022-07-17T08:04:49;102246.19;;;18.92;49.66
20368;BME280;10343;52.402;9.796;2022-07-17T08:07:17;102243.41;;;18.67;50.10
20368;BME280;10343;52.402;9.796;2022-07-17T08:09:45;102233.41;;;18.72;50.36
20368;BME280;10343;52.402;9.796;2022-07-17T08:12:13;102237.19;;;18.65;51.15
20368;BME280;10343;52.402;9.796;2022-07-17T08:15:03;102243.84;;;18.25;51.40
20368;BME280;10343;52.402;9.796;2022-07-17T08:17:31;102255.41;;;17.97;52.02
20368;BME280;10343;52.402;9.796;2022-07-17T08:19:59;102243.97;;;17.89;52.31
20368;BME280;10343;52.402;9.796;2022-07-17T08:22:27;102252.50;;;18.05;52.08
20368;BME280;10343;52.402;9.796;2022-07-17T08:25:15;102259.88;;;18.28;51.79
20368;BME280;10343;52.402;9.796;2022-07-17T08:27:43;102257.81;;;18.36;50.92
20368;BME280;10343;52.402;9.796;2022-07-17T08:30:13;102253.81;;;18.49;51.46
20368;BME280;10343;52.402;9.796;2022-07-17T08:32:42;102271.34;;;18.03;52.07
20368;BME280;10343;52.402;9.796;2022-07-17T08:35:10;102262.72;;;18.22;52.18
20368;BME280;10343;52.402;9.796;2022-07-17T08:37:43;102268.09;;;18.52;51.82
20368;BME280;10343;52.402;9.796;2022-07-17T08:40:16;102265.72;;;18.69;50.66
20368;BME280;10343;52.402;9.796;2022-07-17T08:42:44;102268.78;;;18.57;50.49
20368;BME280;10343;52.402;9.796;2022-07-17T08:45:13;102264.06;;;18.65;50.21
20368;BME280;10343;52.402;9.796;2022-07-17T08:47:41;102270.53;;;18.88;50.26
20368;BME280;10343;52.402;9.796;2022-07-17T08:50:11;102270.31;;;18.94;50.09
20368;BME280;10343;52.402;9.796;2022-07-17T08:52:40;102268.75;;;19.15;49.45
20368;BME280;10343;52.402;9.796;2022-07-17T08:55:10;102262.34;;;19.44;49.15
20368;BME280;10343;52.402;9.796;2022-07-17T08:57:40;102263.81;;;19.28;49.26
20368;BME280;10343;52.402;9.796;2022-07-17T09:00:16;102264.81;;;19.50;49.32
20368;BME280;10343;52.402;9.796;2022-07-17T09:02:53;102260.88;;;19.35;49.19
20368;BME280;10343;52.402;9.796;2022-07-17T09:05:23;102268.59;;;19.45;49.50
20368;BME280;10343;52.402;9.796;2022-07-17T09:07:52;102259.38;;;19.77;48.85
20368;BME280;10343;52.402;9.796;2022-07-17T09:10:30;102255.66;;;20.05;47.93
20368;BME280;10343;52.402;9.796;2022-07-17T09:12:59;102258.28;;;20.07;47.75
20368;BME280;10343;52.402;9.796;2022-07-17T09:15:33;102274.25;;;19.62;49.14
20368;BME280;10343;52.402;9.796;2022-07-17T09:18:01;102269.19;;;19.78;49.04
20368;BME280;10343;52.402;9.796;2022-07-17T09:20:29;102267.00;;;20.13;48.85
20368;BME280;10343;52.402;9.796;2022-07-17T09:22:59;102264.31;;;20.13;47.89
20368;BME280;10343;52.402;9.796;2022-07-17T09:25:36;102265.84;;;19.97;48.46
20368;BME280;10343;52.402;9.796;2022-07-17T09:28:06;102261.34;;;19.72;48.90
20368;BME280;10343;52.402;9.796;2022-07-17T09:30:38;102260.66;;;19.67;49.44
20368;BME280;10343;52.402;9.796;2022-07-17T09:33:10;102260.84;;;19.61;49.36
20368;BME280;10343;52.402;9.796;2022-07-17T09:35:44;102254.94;;;19.26;49.50
20368;BME280;10343;52.402;9.796;2022-07-17T09:38:13;102268.81;;;19.39;48.81
20368;BME280;10343;52.402;9.796;2022-07-17T09:40:47;102262.47;;;19.14;49.26
20368;BME280;10343;52.402;9.796;2022-07-17T09:43:38;102259.88;;;19.38;48.42
20368;BME280;10343;52.402;9.796;2022-07-17T09:46:17;102251.63;;;19.17;49.29
20368;BME280;10343;52.402;9.796;2022-07-17T09:48:47;102259.56;;;18.94;49.31
20368;BME280;10343;52.402;9.796;2022-07-17T09:51:17;102265.16;;;18.88;49.71
20368;BME280;10343;52.402;9.796;2022-07-17T09:53:46;102264.53;;;19.06;49.54
20368;BME280;10343;52.402;9.796;2022-07-17T09:56:16;102258.84;;;19.15;49.49
20368;BME280;10343;52.402;9.796;2022-07-17T09:58:50;102262.28;;;19.21;47.60
20368;BME280;10343;52.402;9.796;2022-07-17T10:01:20;102254.09;;;19.24;45.72
20368;BME280;10343;52.402;9.796;2022-07-17T10:03:50;102252.38;;;19.21;46.95
20368;BME280;10343;52.402;9.796;2022-07-17T10:06:21;102246.75;;;19.02;48.86
20368;BME280;10343;52.402;9.796;2022-07-17T10:08:50;102249.97;;;19.13;48.48
20368;BME280;10343;52.402;9.796;2022-07-17T10:11:19;102250.28;;;19.04;49.07
20368;BME280;10343;52.402;9.796;2022-07-17T10:13:50;102251.81;;;19.11;49.07
20368;BME280;10343;52.402;9.796;2022-07-17T10:16:28;102255.84;;;19.25;48.26
20368;BME280;10343;52.402;9.796;2022-07-17T10:18:57;102260.09;;;19.32;47.89
20368;BME280;10343;52.402;9.796;2022-07-17T10:21:27;102255.69;;;19.29;47.63
20368;BME280;10343;52.402;9.796;2022-07-17T10:24:09;102262.38;;;19.17;48.09
20368;BME280;10343;52.402;9.796;2022-07-17T10:26:39;102267.44;;;19.27;48.49
20368;BME280;10343;52.402;9.796;2022-07-17T10:29:08;102261.84;;;19.33;47.83
20368;BME280;10343;52.402;9.796;2022-07-17T10:31:50;102258.44;;;19.28;46.71
20368;BME280;10343;52.402;9.796;2022-07-17T10:34:22;102253.59;;;19.12;46.45
20368;BME280;10343;52.402;9.796;2022-07-17T10:37:14;102255.91;;;19.23;45.82
20368;BME280;10343;52.402;9.796;2022-07-17T10:39:52;102250.38;;;19.28;46.41
20368;BME280;10343;52.402;9.796;2022-07-17T10:42:45;102238.38;;;19.38;45.81
20368;BME280;10343;52.402;9.796;2022-07-17T10:45:14;102239.25;;;19.39;46.33
20368;BME280;10343;52.402;9.796;2022-07-17T10:47:46;102246.25;;;19.17;47.13
20368;BME280;10343;52.402;9.796;2022-07-17T10:50:16;102241.88;;;19.40;46.66
20368;BME280;10343;52.402;9.796;2022-07-17T10:52:59;102246.47;;;19.62;45.94
20368;BME280;10343;52.402;9.796;2022-07-17T10:55:27;102245.69;;;19.58;44.96
20368;BME280;10343;52.402;9.796;2022-07-17T10:57:56;102235.94;;;19.56;43.96
20368;BME280;10343;52.402;9.796;2022-07-17T11:00:24;102243.19;;;19.54;44.03
20368;BME280;10343;52.402;9.796;2022-07-17T11:02:54;102242.75;;;19.66;44.67
20368;BME280;10343;52.402;9.796;2022-07-17T11:05:22;102235.16;;;19.77;44.20
20368;BME280;10343;52.402;9.796;2022-07-17T11:07:56;102230.50;;;19.82;43.47
20368;BME280;10343;52.402;9.796;2022-07-17T11:10:27;102223.81;;;19.93;43.75
20368;BME280;10343;52.402;9.796;2022-07-17T11:13:07;102228.75;;;20.05;43.50
20368;BME280;10343;52.402;9.796;2022-07-17T11:15:40;102222.63;;;20.01;41.98
20368;BME280;10343;52.402;9.796;2022-07-17T11:18:16;102226.97;;;20.04;42.54
20368;BME280;10343;52.402;9.796;2022-07-17T11:20:52;102224.25;;;20.06;42.17
20368;BME280;10343;52.402;9.796;2022-07-17T11:23:22;102215.28;;;20.05;42.29
20368;BME280;10343;52.402;9.796;2022-07-17T11:25:56;102217.44;;;20.19;42.29
20368;BME280;10343;52.402;9.796;2022-07-17T11:28:36;102211.97;;;20.20;42.66
20368;BME280;10343;52.402;9.796;2022-07-17T11:31:16;102196.34;;;20.30;42.84
20368;BME280;10343;52.402;9.796;2022-07-17T11:33:51;102203.09;;;20.18;41.55
20368;BME280;10343;52.402;9.796;2022-07-17T11:36:25;102199.91;;;20.31;41.65
20368;BME280;10343;52.402;9.796;2022-07-17T11:38:55;102199.06;;;20.52;41.86
20368;BME280;10343;52.402;9.796;2022-07-17T11:41:32;102201.63;;;20.56;40.87
20368;BME280;10343;52.402;9.796;2022-07-17T11:44:00;102204.88;;;20.42;40.75
20368;BME280;10343;52.402;9.796;2022-07-17T11:46:30;102199.16;;;20.49;40.46
20368;BME280;10343;52.402;9.796;2022-07-17T11:49:00;102205.59;;;20.45;41.20
20368;BME280;10343;52.402;9.796;2022-07-17T11:51:36;102194.59;;;20.51;41.15
20368;BME280;10343;52.402;9.796;2022-07-17T11:54:05;102194.59;;;20.51;40.58
20368;BME280;10343;52.402;9.796;2022-07-17T11:56:33;102197.72;;;20.63;40.63
20368;BME280;10343;52.402;9.796;2022-07-17T11:59:03;102201.88;;;20.72;40.72
20368;BME280;10343;52.402;9.796;2022-07-17T12:01:40;102196.91;;;20.83;40.46
20368;BME280;10343;52.402;9.796;2022-07-17T12:04:11;102184.00;;;20.91;40.16
20368;BME280;10343;52.402;9.796;2022-07-17T12:06:43;102185.13;;;20.85;40.56
20368;BME280;10343;52.402;9.796;2022-07-17T12:09:12;102195.66;;;20.92;40.82
20368;BME280;10343;52.402;9.796;2022-07-17T12:11:48;102189.31;;;20.93;40.81
20368;BME280;10343;52.402;9.796;2022-07-17T12:14:16;102178.88;;;21.06;40.49
20368;BME280;10343;52.402;9.796;2022-07-17T12:16:44;102175.69;;;21.16;40.13
20368;BME280;10343;52.402;9.796;2022-07-17T12:19:16;102178.63;;;21.12;39.69
20368;BME280;10343;52.402;9.796;2022-07-17T12:21:48;102166.69;;;21.17;39.30
20368;BME280;10343;52.402;9.796;2022-07-17T12:24:22;102165.84;;;21.36;39.33
20368;BME280;10343;52.402;9.796;2022-07-17T12:26:52;102169.34;;;21.38;38.36
20368;BME280;10343;52.402;9.796;2022-07-17T12:29:22;102171.00;;;21.21;38.13
20368;BME280;10343;52.402;9.796;2022-07-17T12:32:00;102158.78;;;21.13;38.02
20368;BME280;10343;52.402;9.796;2022-07-17T12:34:29;102163.00;;;21.18;37.38
20368;BME280;10343;52.402;9.796;2022-07-17T12:36:57;102163.69;;;21.24;37.62
20368;BME280;10343;52.402;9.796;2022-07-17T12:39:25;102163.44;;;21.30;37.66
20368;BME280;10343;52.402;9.796;2022-07-17T12:41:53;102158.16;;;21.27;37.91
20368;BME280;10343;52.402;9.796;2022-07-17T12:44:21;102156.81;;;21.37;38.24
20368;BME280;10343;52.402;9.796;2022-07-17T12:46:49;102156.72;;;21.59;38.69
20368;BME280;10343;52.402;9.796;2022-07-17T12:49:18;102148.63;;;21.59;38.14
20368;BME280;10343;52.402;9.796;2022-07-17T12:51:47;102147.97;;;21.73;38.26
20368;BME280;10343;52.402;9.796;2022-07-17T12:54:15;102152.66;;;21.88;37.35
20368;BME280;10343;52.402;9.796;2022-07-17T12:56:43;102149.31;;;21.83;35.72
20368;BME280;10343;52.402;9.796;2022-07-17T12:59:11;102145.50;;;21.87;35.69
20368;BME280;10343;52.402;9.796;2022-07-17T13:01:39;102140.63;;;21.96;35.73
20368;BME280;10343;52.402;9.796;2022-07-17T13:04:07;102152.06;;;22.01;35.65